Lindberg, Washington
Current Conditions -  °F | °C
As of 4:35 PM on Saturday 20 Dec 2014 (Local Time) from KCLS Reporting Station
Light Rain Light Rain  
Wind Chill: 52°   Ceiling: 2300
Heat Index: 52°   Visibility: 10mi
Dew Point: 52°   Wind: 14mph
Humidity: 100%   Direction: 180°S
Pressure: 29.53"   Gusts: 21mph
Location:  46.5826°N, 122.285°W
Report Text: KCLS 210035Z AUTO 18012G18KT 10SM -RA FEW009 FEW012 OVC023 11/11 A2953 RMK AO2
Loading
Personal Weather Stations






























Interactive Weather Map New forecast layout! Learn more

10-Day Weather Forecast

Advertisements
Track Severe Weather on mobile